createdAt,value
2019-04-16T04:01:20.912Z,50.65
2019-04-16T04:03:49.442Z,35.35
2019-04-16T04:06:18.043Z,41.73
2019-04-16T04:08:48.329Z,57.10
2019-04-16T04:11:16.399Z,70.55
2019-04-16T04:13:49.773Z,43.13
2019-04-16T04:16:15.412Z,35.58
2019-04-16T04:18:43.957Z,36.20
2019-04-16T04:21:12.213Z,37.53
2019-04-16T04:23:40.408Z,33.18
2019-04-16T04:26:10.176Z,37.25
2019-04-16T04:28:38.588Z,46.08
2019-04-16T04:31:06.884Z,47.38
2019-04-16T04:33:40.920Z,49.15
2019-04-16T04:36:10.264Z,62.00
2019-04-16T04:38:38.616Z,46.40
2019-04-16T04:41:06.871Z,36.50
2019-04-16T04:43:35.113Z,32.58
2019-04-16T04:46:03.297Z,32.58
2019-04-16T04:48:31.478Z,32.53
2019-04-16T04:50:59.667Z,39.92
2019-04-16T04:53:28.171Z,35.75
2019-04-16T04:55:57.155Z,35.35
2019-04-16T04:58:26.033Z,38.67
2019-04-16T05:00:54.217Z,42.13
2019-04-16T05:03:29.475Z,32.03
2019-04-16T05:06:01.962Z,42.78
2019-04-16T05:08:30.142Z,38.02
2019-04-16T05:11:02.693Z,35.68
2019-04-16T05:13:28.830Z,32.38
2019-04-16T05:15:58.342Z,35.80
2019-04-16T05:18:26.920Z,36.98
2019-04-16T05:20:55.398Z,51.75
2019-04-16T05:23:25.675Z,34.90
2019-04-16T05:25:53.491Z,37.30
2019-04-16T05:28:21.671Z,35.48
2019-04-16T05:30:52.259Z,36.88
2019-04-16T05:33:20.051Z,38.28
2019-04-16T05:35:48.243Z,51.33
2019-04-16T05:38:16.422Z,46.92
2019-04-16T05:40:44.610Z,48.75
2019-04-16T05:43:13.065Z,59.18
2019-04-16T05:45:41.254Z,50.08
2019-04-16T05:48:09.452Z,64.22
2019-04-16T05:50:37.899Z,65.85
2019-04-16T05:53:08.275Z,64.22
2019-04-16T05:55:37.934Z,73.05
2019-04-16T05:58:06.108Z,62.62
2019-04-16T06:00:38.551Z,69.60
2019-04-16T06:03:06.104Z,62.58
2019-04-16T06:05:34.390Z,58.63
2019-04-16T06:08:06.311Z,48.40
2019-04-16T06:10:34.125Z,41.92
2019-04-16T06:13:20.175Z,37.45
2019-04-16T06:15:54.057Z,40.63
2019-04-16T06:18:40.047Z,32.60
2019-04-16T06:21:26.815Z,30.55
2019-04-16T06:24:06.033Z,27.62
2019-04-16T06:26:54.304Z,28.00
2019-04-16T06:29:40.499Z,28.77
2019-04-16T06:32:29.079Z,23.77
2019-04-16T06:35:01.573Z,23.30
2019-04-16T06:37:34.247Z,23.40
2019-04-16T06:40:04.507Z,21.73
2019-04-16T06:42:34.314Z,21.82
2019-04-16T06:45:04.862Z,24.20
2019-04-16T06:47:35.771Z,20.10
2019-04-16T06:50:09.429Z,21.15
2019-04-16T06:52:56.253Z,21.17
2019-04-16T06:55:42.964Z,21.25
2019-04-16T06:58:18.926Z,17.73
2019-04-16T07:00:57.809Z,17.60
2019-04-16T07:03:43.871Z,14.60
2019-04-16T07:06:30.390Z,15.30
2019-04-16T07:09:02.878Z,13.43
2019-04-16T07:11:32.696Z,16.17
2019-04-16T07:14:00.888Z,17.10
2019-04-16T07:16:29.316Z,16.93
2019-04-16T07:18:57.502Z,15.78
2019-04-16T07:21:25.684Z,16.80
2019-04-16T07:23:58.140Z,19.82
2019-04-16T07:26:23.839Z,19.12
2019-04-16T07:28:58.542Z,19.82
2019-04-16T07:31:33.494Z,14.68
2019-04-16T07:34:02.496Z,13.58
2019-04-16T07:36:32.306Z,12.37
2019-04-16T07:39:28.820Z,13.45
2019-04-16T07:42:10.524Z,11.10
2019-04-16T07:44:55.976Z,9.45
2019-04-16T07:47:28.268Z,11.15
2019-04-16T07:50:01.616Z,8.58
2019-04-16T07:52:31.497Z,10.43
2019-04-16T07:55:03.980Z,10.08
2019-04-16T07:57:32.156Z,9.30
2019-04-16T08:00:00.620Z,9.30
2019-04-16T08:02:29.105Z,9.50
2019-04-16T08:04:57.608Z,8.08
2019-04-16T08:07:26.073Z,8.28
2019-04-16T08:09:54.267Z,8.80
2019-04-16T08:12:30.304Z,12.50
2019-04-16T08:14:52.641Z,11.83
2019-04-16T08:17:21.126Z,11.40
2019-04-16T08:19:49.582Z,12.15
2019-04-16T08:22:17.812Z,9.83
2019-04-16T08:24:57.545Z,13.38
2019-04-16T08:27:23.495Z,11.03
2019-04-16T08:29:51.676Z,10.43
2019-04-16T08:32:19.857Z,9.20
2019-04-16T08:34:48.280Z,8.63
2019-04-16T08:37:16.447Z,7.53
2019-04-16T08:39:44.628Z,9.78
2019-04-16T08:42:12.812Z,10.32
2019-04-16T08:44:41.282Z,5.67
2019-04-16T08:47:12.024Z,8.03
2019-04-16T08:49:39.362Z,7.28
2019-04-16T08:52:10.180Z,5.87
2019-04-16T08:54:37.439Z,4.95
2019-04-16T08:57:05.611Z,6.75
2019-04-16T08:59:33.793Z,7.97
2019-04-16T09:02:01.961Z,6.83
2019-04-16T09:04:34.117Z,6.35
2019-04-16T09:07:11.387Z,7.08
2019-04-16T09:09:34.908Z,4.62
2019-04-16T09:12:07.957Z,4.62
2019-04-16T09:14:36.347Z,5.05
2019-04-16T09:17:09.612Z,4.95
2019-04-16T09:19:37.866Z,4.72
2019-04-16T09:22:06.235Z,5.10
2019-04-16T09:24:41.814Z,4.83
2019-04-16T09:27:14.586Z,5.85
2019-04-16T09:29:44.396Z,3.20
2019-04-16T09:32:14.208Z,3.52
2019-04-16T09:34:49.741Z,3.62
2019-04-16T09:37:29.333Z,5.37
2019-04-16T09:40:16.661Z,5.08
2019-04-16T09:42:38.481Z,7.53
2019-04-16T09:45:08.588Z,5.60
2019-04-16T09:47:36.770Z,5.58
2019-04-16T09:50:09.805Z,7.40
2019-04-16T09:52:36.230Z,6.78
2019-04-16T09:55:05.242Z,7.50
2019-04-16T09:57:33.722Z,7.75
2019-04-16T10:00:03.543Z,7.60
2019-04-16T10:02:33.649Z,8.23
2019-04-16T10:05:01.821Z,10.78
2019-04-16T10:07:30.311Z,8.58
2019-04-16T10:09:58.499Z,9.45
2019-04-16T10:12:26.668Z,9.68
2019-04-16T10:14:55.141Z,10.75
2019-04-16T10:17:23.511Z,9.45
2019-04-16T10:19:51.663Z,14.83
2019-04-16T10:22:20.103Z,11.00
2019-04-16T10:24:52.848Z,10.30
2019-04-16T10:27:31.204Z,11.63
2019-04-16T10:29:58.406Z,10.82
2019-04-16T10:32:28.297Z,12.05
2019-04-16T10:34:56.468Z,11.50
2019-04-16T10:37:24.659Z,11.43
2019-04-16T10:40:00.452Z,11.70
2019-04-16T10:42:30.283Z,10.83
2019-04-16T10:45:00.109Z,13.18
2019-04-16T10:47:35.596Z,10.25
2019-04-16T10:50:06.814Z,11.60
2019-04-16T10:52:55.680Z,10.40
2019-04-16T10:55:24.395Z,12.65
2019-04-16T10:58:10.427Z,12.20
2019-04-16T11:00:43.190Z,12.43
2019-04-16T11:03:24.921Z,12.70
2019-04-16T11:05:57.853Z,12.10
2019-04-16T11:08:26.160Z,11.30
2019-04-16T11:10:54.324Z,10.25
2019-04-16T11:13:29.838Z,11.48
2019-04-16T11:15:59.663Z,10.43
2019-04-16T11:18:28.114Z,11.15
2019-04-16T11:20:56.366Z,10.58
2019-04-16T11:23:24.560Z,13.08
2019-04-16T11:25:52.727Z,11.22
2019-04-16T11:28:20.922Z,11.57
2019-04-16T11:30:53.647Z,9.53
2019-04-16T11:33:21.825Z,13.32
2019-04-16T11:35:52.747Z,12.18
2019-04-16T11:38:19.925Z,11.25
2019-04-16T11:40:48.389Z,10.13
2019-04-16T11:43:16.874Z,9.75
2019-04-16T11:45:45.035Z,9.53
2019-04-16T11:48:13.382Z,8.98
2019-04-16T11:50:41.932Z,10.15
2019-04-16T11:53:10.480Z,10.03
2019-04-16T11:55:38.732Z,10.50
2019-04-16T11:58:08.645Z,12.50
2019-04-16T12:00:47.364Z,12.88
2019-04-16T12:03:17.721Z,11.30
2019-04-16T12:06:03.308Z,10.20
2019-04-16T12:08:33.125Z,11.12
2019-04-16T12:11:08.792Z,11.63
2019-04-16T12:13:47.933Z,12.78
2019-04-16T12:16:35.539Z,9.43
2019-04-16T12:19:08.231Z,10.30
2019-04-16T12:21:40.757Z,8.73
2019-04-16T12:24:25.983Z,9.60
2019-04-16T12:26:58.680Z,12.75
2019-04-16T12:29:43.802Z,11.80
2019-04-16T12:32:16.422Z,12.20
2019-04-16T12:35:04.315Z,11.08
2019-04-16T12:37:50.461Z,11.40
2019-04-16T12:40:21.182Z,11.85
2019-04-16T12:42:56.908Z,13.32
2019-04-16T12:45:29.478Z,10.53
2019-04-16T12:48:02.256Z,8.80
2019-04-16T12:50:35.086Z,11.22
2019-04-16T12:53:16.948Z,9.50
2019-04-16T12:56:07.407Z,10.63
2019-04-16T12:58:40.850Z,10.98
2019-04-16T13:01:20.036Z,11.47
2019-04-16T13:03:52.590Z,10.05
2019-04-16T13:06:37.631Z,10.03
2019-04-16T13:09:26.756Z,9.05
2019-04-16T13:11:59.523Z,9.43
2019-04-16T13:14:32.063Z,10.08
2019-04-16T13:17:07.631Z,8.98
2019-04-16T13:19:43.409Z,9.00
2019-04-16T13:22:13.217Z,8.20
2019-04-16T13:24:52.231Z,9.08
2019-04-16T13:27:22.314Z,12.10
2019-04-16T13:29:50.505Z,10.10
2019-04-16T13:32:18.683Z,9.98
2019-04-16T13:34:47.144Z,11.85
2019-04-16T13:37:15.404Z,11.33
2019-04-16T13:39:54.039Z,11.88
2019-04-16T13:42:22.199Z,10.88
2019-04-16T13:44:55.150Z,11.20
2019-04-16T13:47:23.602Z,11.28
2019-04-16T13:49:56.111Z,9.40
2019-04-16T13:52:25.465Z,10.90
2019-04-16T13:55:11.973Z,10.08
2019-04-16T13:57:44.266Z,7.73
2019-04-16T14:00:30.335Z,11.48
2019-04-16T14:03:00.321Z,12.05
2019-04-16T14:05:28.841Z,10.30
2019-04-16T14:07:57.315Z,10.25
2019-04-16T14:10:25.500Z,11.68
2019-04-16T14:12:53.759Z,10.23
2019-04-16T14:15:31.817Z,8.48
2019-04-16T14:17:59.113Z,10.05
2019-04-16T14:20:23.811Z,15.63
2019-04-16T14:22:53.662Z,14.23
2019-04-16T14:25:22.077Z,10.72
2019-04-16T14:27:50.245Z,8.50
2019-04-16T14:30:20.418Z,10.93
2019-04-16T14:32:48.602Z,9.25
2019-04-16T14:35:32.459Z,11.70
2019-04-16T14:37:48.369Z,10.98
2019-04-16T14:40:18.166Z,9.05
2019-04-16T14:42:46.344Z,10.08
2019-04-16T14:45:16.186Z,9.68
2019-04-16T14:47:44.697Z,8.85
2019-04-16T14:50:13.848Z,8.43
2019-04-16T14:52:42.138Z,7.03
2019-04-16T14:55:12.306Z,10.30
2019-04-16T14:57:58.365Z,7.92
2019-04-16T15:00:36.674Z,9.73
2019-04-16T15:03:06.488Z,9.03
2019-04-16T15:05:36.637Z,7.92
2019-04-16T15:08:06.455Z,8.20
2019-04-16T15:10:52.224Z,8.58
2019-04-16T15:13:22.363Z,7.20
2019-04-16T15:16:10.993Z,6.78
2019-04-16T15:18:48.934Z,6.25
2019-04-16T15:21:31.116Z,7.95
2019-04-16T15:24:06.696Z,8.40
2019-04-16T15:26:36.800Z,8.58
2019-04-16T15:29:09.412Z,9.55
2019-04-16T15:31:42.441Z,8.83
2019-04-16T15:34:18.152Z,10.08
2019-04-16T15:36:50.123Z,7.60
2019-04-16T15:39:19.859Z,7.33
2019-04-16T15:42:05.801Z,7.37
2019-04-16T15:44:35.628Z,6.45
2019-04-16T15:47:05.459Z,6.97
2019-04-16T15:49:55.659Z,6.05
2019-04-16T15:52:30.731Z,7.08
2019-04-16T15:55:17.052Z,6.20
2019-04-16T15:57:50.213Z,6.70
2019-04-16T16:00:20.039Z,6.33
2019-04-16T16:02:55.359Z,6.28
2019-04-16T16:05:31.134Z,5.35
2019-04-16T16:08:09.938Z,6.57
2019-04-16T16:10:45.102Z,5.15
2019-04-16T16:13:09.910Z,7.62
2019-04-16T16:15:40.477Z,5.45
2019-04-16T16:18:08.583Z,5.70
2019-04-16T16:20:37.058Z,7.97
2019-04-16T16:23:05.238Z,6.75
2019-04-16T16:25:33.423Z,9.08
2019-04-16T16:28:01.898Z,7.12
2019-04-16T16:30:30.075Z,6.83
2019-04-16T16:32:58.565Z,8.23
2019-04-16T16:35:26.729Z,8.75
2019-04-16T16:37:55.060Z,10.65
2019-04-16T16:40:23.505Z,14.47
2019-04-16T16:42:51.965Z,15.35
2019-04-16T16:45:22.041Z,18.82
2019-04-16T16:47:50.235Z,18.35
2019-04-16T16:50:18.417Z,18.82
2019-04-16T16:53:04.915Z,21.05
2019-04-16T16:55:37.472Z,18.42
2019-04-16T16:58:14.090Z,18.98
2019-04-16T17:00:43.914Z,20.65
2019-04-16T17:03:13.747Z,20.55
2019-04-16T17:05:45.188Z,20.97
2019-04-16T17:08:13.650Z,21.35
2019-04-16T17:10:42.892Z,21.25
2019-04-16T17:13:14.674Z,19.80
2019-04-16T17:15:41.231Z,22.37
2019-04-16T17:18:09.424Z,21.33
2019-04-16T17:20:38.373Z,20.45
2019-04-16T17:23:07.522Z,21.85
2019-04-16T17:25:36.978Z,21.12
2019-04-16T17:28:05.613Z,24.95
2019-04-16T17:30:34.084Z,23.90
2019-04-16T17:33:02.289Z,22.67
2019-04-16T17:35:30.533Z,20.40
2019-04-16T17:38:02.774Z,22.13
2019-04-16T17:40:36.611Z,22.00
2019-04-16T17:43:13.078Z,25.90
2019-04-16T17:45:40.453Z,23.77
2019-04-16T17:48:26.685Z,10.70
2019-04-16T17:51:02.669Z,12.90
2019-04-16T17:53:32.502Z,8.30
2019-04-16T17:56:18.787Z,8.88
2019-04-16T17:58:54.963Z,8.68
2019-04-16T18:01:43.440Z,7.33
2019-04-16T18:04:29.512Z,6.33
2019-04-16T18:07:01.863Z,7.73
2019-04-16T18:09:31.685Z,6.65
2019-04-16T18:12:01.511Z,7.53
2019-04-16T18:14:47.534Z,7.08
2019-04-16T18:17:17.344Z,5.42
2019-04-16T18:19:53.110Z,5.67
2019-04-16T18:22:25.373Z,4.95
2019-04-16T18:24:55.483Z,5.30
2019-04-16T18:27:34.325Z,5.78
2019-04-16T18:30:07.156Z,4.72
2019-04-16T18:32:52.761Z,5.00
2019-04-16T18:35:22.598Z,5.97
2019-04-16T18:37:52.575Z,4.45
2019-04-16T18:40:28.235Z,5.53
2019-04-16T18:43:16.272Z,4.15
2019-04-16T18:45:58.407Z,4.60
2019-04-16T18:48:28.496Z,3.58
2019-04-16T18:51:00.206Z,5.28
2019-04-16T18:53:26.885Z,4.87
2019-04-16T18:55:55.479Z,6.42
2019-04-16T18:58:23.964Z,4.55
2019-04-16T19:00:54.075Z,4.28
2019-04-16T19:03:22.574Z,5.97
2019-04-16T19:05:50.768Z,4.87
2019-04-16T19:08:18.936Z,5.78
2019-04-16T19:10:47.395Z,5.95
2019-04-16T19:13:15.576Z,5.05
2019-04-16T19:15:43.773Z,5.30
2019-04-16T19:18:19.510Z,5.20
2019-04-16T19:20:41.857Z,7.47
2019-04-16T19:23:10.045Z,5.35
2019-04-16T19:25:38.236Z,7.15
2019-04-16T19:28:06.967Z,7.10
2019-04-16T19:30:35.242Z,5.70
2019-04-16T19:33:03.727Z,7.28
2019-04-16T19:35:31.917Z,8.23
2019-04-16T19:38:02.294Z,7.50
2019-04-16T19:40:30.000Z,5.80
2019-04-16T19:43:02.617Z,7.92
2019-04-16T19:45:28.695Z,7.95
2019-04-16T19:48:00.324Z,6.65
2019-04-16T19:50:33.250Z,8.05
2019-04-16T19:52:57.245Z,6.12
2019-04-16T19:55:25.419Z,6.30
2019-04-16T19:57:56.808Z,5.85
2019-04-16T20:00:23.895Z,6.55
2019-04-16T20:02:52.077Z,6.35
2019-04-16T20:05:20.245Z,9.13
2019-04-16T20:07:48.842Z,7.42
2019-04-16T20:10:17.309Z,8.58
2019-04-16T20:12:45.782Z,7.10
2019-04-16T20:15:14.602Z,7.62
2019-04-16T20:17:42.795Z,6.85
2019-04-16T20:20:11.233Z,8.25
2019-04-16T20:22:39.415Z,6.85
2019-04-16T20:25:07.588Z,8.55
2019-04-16T20:27:36.290Z,7.80
2019-04-16T20:30:06.803Z,8.18
2019-04-16T20:32:35.155Z,10.88
2019-04-16T20:35:03.826Z,8.93
2019-04-16T20:37:32.791Z,10.35
2019-04-16T20:40:01.275Z,13.28
2019-04-16T20:42:29.600Z,14.60
2019-04-16T20:44:57.771Z,10.30
2019-04-16T20:47:26.140Z,11.15
2019-04-16T20:49:54.575Z,12.40
2019-04-16T20:52:23.084Z,12.07
2019-04-16T20:54:54.414Z,12.75
2019-04-16T20:57:25.322Z,11.43
2019-04-16T20:59:52.582Z,18.73
2019-04-16T21:34:36.579Z,11.90
2019-04-16T21:37:15.227Z,12.75
2019-04-16T21:39:47.154Z,15.65
2019-04-16T21:42:15.492Z,16.62
2019-04-16T21:44:44.607Z,17.32
2019-04-16T21:47:13.622Z,17.70
2019-04-16T21:49:45.048Z,14.73
2019-04-16T21:52:12.047Z,14.55
2019-04-16T21:54:40.244Z,15.93
2019-04-16T21:57:12.937Z,16.48
2019-04-16T21:59:38.658Z,14.45
2019-04-16T22:02:23.612Z,15.48
2019-04-16T22:04:51.802Z,17.25
2019-04-16T22:07:24.195Z,19.00
2019-04-16T22:09:50.150Z,17.12
2019-04-16T22:12:18.650Z,17.62
2019-04-16T22:14:46.850Z,17.20
2019-04-16T22:17:15.020Z,14.90
2019-04-16T22:19:54.008Z,14.15
2019-04-16T22:22:15.012Z,15.38
2019-04-16T22:24:43.317Z,20.80
2019-04-16T22:27:11.496Z,16.50
2019-04-16T22:29:39.692Z,15.08
2019-04-16T22:32:07.869Z,16.37
2019-04-16T22:34:36.055Z,16.12
2019-04-16T22:37:04.310Z,19.42
2019-04-16T22:39:51.255Z,17.80
2019-04-16T22:42:26.416Z,18.02
2019-04-16T22:45:05.393Z,17.17
2019-04-16T22:47:35.505Z,16.15
2019-04-16T22:50:14.788Z,19.60
2019-04-16T22:52:34.915Z,16.60
2019-04-16T22:55:03.499Z,17.45
2019-04-16T22:57:31.865Z,18.02
2019-04-16T23:00:00.360Z,17.37
2019-04-16T23:02:30.307Z,17.07
2019-04-16T23:04:59.962Z,16.55
2019-04-16T23:07:28.349Z,16.80
2019-04-16T23:09:56.848Z,16.45
2019-04-16T23:12:28.093Z,16.55
2019-04-16T23:14:55.247Z,14.55
2019-04-16T23:17:25.071Z,18.52
2019-04-16T23:19:54.734Z,17.32
2019-04-16T23:22:23.452Z,14.90
2019-04-16T23:24:55.273Z,17.55
2019-04-16T23:27:21.840Z,16.45
2019-04-16T23:29:50.047Z,13.68
2019-04-16T23:32:18.219Z,17.27
2019-04-16T23:34:46.418Z,19.57
2019-04-16T23:37:14.592Z,15.72
2019-04-16T23:39:42.775Z,15.83
2019-04-16T23:42:11.295Z,21.23
2019-04-16T23:44:41.174Z,15.75
2019-04-16T23:47:20.084Z,15.10
2019-04-16T23:49:59.181Z,15.32
2019-04-16T23:52:31.938Z,15.93
2019-04-16T23:55:03.802Z,15.05
2019-04-16T23:57:35.897Z,15.48
